createdAt,value
2023-05-19T00:00:51.145Z,102720.38
2023-05-19T00:01:53.323Z,102722.13
2023-05-19T00:02:57.112Z,102722.97
2023-05-19T00:04:02.726Z,102713.41
2023-05-19T00:05:05.207Z,102717.75
2023-05-19T00:06:10.723Z,102720.31
2023-05-19T00:07:14.486Z,102721.97
2023-05-19T00:08:17.491Z,102712.31
2023-05-19T00:09:20.142Z,102717.41
2023-05-19T00:10:22.016Z,102715.53
2023-05-19T00:11:25.522Z,102721.56
2023-05-19T00:12:27.369Z,102723.28
2023-05-19T00:13:29.680Z,102718.09
2023-05-19T00:14:31.536Z,102723.22
2023-05-19T00:15:33.724Z,102721.53
2023-05-19T00:16:37.910Z,102729.31
2023-05-19T00:17:42.438Z,102721.41
2023-05-19T00:18:44.201Z,102723.13
2023-05-19T00:19:45.964Z,102723.06
2023-05-19T00:20:47.565Z,102723.91
2023-05-19T00:21:49.293Z,102725.56
2023-05-19T00:22:51.476Z,102725.44
2023-05-19T00:23:54.645Z,102721.91
2023-05-19T00:24:56.453Z,102722.72
2023-05-19T00:25:58.116Z,102726.16
2023-05-19T00:26:59.855Z,102720.06
2023-05-19T00:28:02.528Z,102725.28
2023-05-19T00:29:04.578Z,102717.47
2023-05-19T00:30:07.248Z,102720.09
2023-05-19T00:31:08.905Z,102720.13
2023-05-19T00:32:10.591Z,102721.03
2023-05-19T00:33:12.563Z,102715.88
2023-05-19T00:34:14.399Z,102715.88
2023-05-19T00:35:16.505Z,102711.56
2023-05-19T00:36:18.321Z,102721.19
2023-05-19T00:37:20.582Z,102717.69
2023-05-19T00:38:22.239Z,102711.63
2023-05-19T00:39:23.976Z,102709.88
2023-05-19T00:40:25.934Z,102709.81
2023-05-19T00:41:27.613Z,102708.03
2023-05-19T00:42:29.444Z,102710.63
2023-05-19T00:43:31.501Z,102714.06
2023-05-19T00:44:33.354Z,102704.44
2023-05-19T00:45:35.633Z,102705.25
2023-05-19T00:46:37.996Z,102708.72
2023-05-19T00:47:39.709Z,102700.84
2023-05-19T00:48:44.579Z,102701.72
2023-05-19T00:49:46.270Z,102706.03
2023-05-19T00:50:49.184Z,102707.75
2023-05-19T00:51:50.802Z,102704.22
2023-05-19T00:52:52.644Z,102705.91
2023-05-19T00:53:54.368Z,102706.75
2023-05-19T00:54:56.413Z,102702.34
2023-05-19T00:56:00.000Z,102698.81
2023-05-19T00:57:01.757Z,102705.75
2023-05-19T00:58:05.422Z,102697.94
2023-05-19T00:59:08.053Z,102699.69
2023-05-19T01:00:11.196Z,102699.66
2023-05-19T01:01:14.626Z,102696.25
2023-05-19T01:02:16.433Z,102702.34
2023-05-19T01:04:25.545Z,102699.84
2023-05-19T01:05:27.219Z,102696.38
2023-05-19T01:06:29.593Z,102696.38
2023-05-19T01:07:31.310Z,102697.28
2023-05-19T01:08:34.336Z,102699.88
2023-05-19T01:09:37.322Z,102699.88
2023-05-19T01:10:39.120Z,102696.41
2023-05-19T01:11:40.868Z,102693.78
2023-05-19T01:12:42.630Z,102699.88
2023-05-19T01:13:44.476Z,102697.25
2023-05-19T01:14:46.387Z,102704.16
2023-05-19T01:16:32.388Z,102698.94
2023-05-19T01:17:49.399Z,102698.91
2023-05-19T01:18:56.196Z,102705.88
2023-05-19T01:20:10.969Z,102704.97
2023-05-19T01:21:36.466Z,102707.59
2023-05-19T01:22:57.246Z,102704.06
2023-05-19T01:24:17.891Z,102704.88
2023-05-19T01:25:44.647Z,102709.19
2023-05-19T01:27:08.107Z,102708.25
2023-05-19T01:28:38.524Z,102702.13
2023-05-19T01:29:57.424Z,102704.72
2023-05-19T01:31:00.672Z,102705.53
2023-05-19T01:32:04.825Z,102713.34
2023-05-19T01:33:09.938Z,102708.97
2023-05-19T01:34:16.371Z,102713.34
2023-05-19T01:35:19.223Z,102712.44
2023-05-19T01:36:23.478Z,102718.50
2023-05-19T01:37:26.794Z,102710.66
2023-05-19T01:38:29.771Z,102709.75
2023-05-19T01:39:33.487Z,102717.56
2023-05-19T01:40:37.209Z,102711.50
2023-05-19T01:41:41.714Z,102715.00
2023-05-19T01:42:45.471Z,102715.81
2023-05-19T01:43:48.728Z,102719.31
2023-05-19T01:44:52.050Z,102712.31
2023-05-19T01:45:55.067Z,102710.53
2023-05-19T01:46:57.073Z,102722.75
2023-05-19T01:48:01.836Z,102714.94
2023-05-19T01:49:04.559Z,102714.94
2023-05-19T01:50:06.924Z,102714.94
2023-05-19T01:51:08.792Z,102714.88
2023-05-19T01:52:10.469Z,102722.66
2023-05-19T01:53:12.335Z,102719.22
2023-05-19T01:54:14.039Z,102721.84
2023-05-19T01:55:15.969Z,102723.53
2023-05-19T01:56:38.349Z,102722.69
2023-05-19T01:58:03.294Z,102719.22
2023-05-19T01:59:23.996Z,102720.09
2023-05-19T02:00:47.493Z,102719.22
2023-05-19T02:01:57.052Z,102725.31
2023-05-19T02:03:01.775Z,102720.97
2023-05-19T02:04:28.702Z,102724.47
2023-05-19T02:05:38.441Z,102727.06
2023-05-19T02:06:58.687Z,102723.56
2023-05-19T02:08:19.568Z,102720.97
2023-05-19T02:09:39.820Z,102720.09
2023-05-19T02:10:45.602Z,102720.06
2023-05-19T02:11:55.403Z,102727.00
2023-05-19T02:13:01.499Z,102722.66
2023-05-19T02:14:16.057Z,102722.63
2023-05-19T02:15:21.483Z,102723.50
2023-05-19T02:16:29.327Z,102722.63
2023-05-19T02:17:33.338Z,102724.41
2023-05-19T02:18:35.925Z,102723.50
2023-05-19T02:19:40.023Z,102727.84
2023-05-19T02:20:42.593Z,102721.78
2023-05-19T02:21:44.312Z,102722.59
2023-05-19T02:22:46.028Z,102721.72
2023-05-19T02:23:48.760Z,102726.84
2023-05-19T02:24:51.792Z,102719.91
2023-05-19T02:25:53.749Z,102726.81
2023-05-19T02:26:55.552Z,102725.03
2023-05-19T02:27:58.777Z,102724.16
2023-05-19T02:29:00.413Z,102718.09
2023-05-19T02:30:03.535Z,102718.09
2023-05-19T02:31:10.054Z,102717.19
2023-05-19T02:32:11.940Z,102715.50
2023-05-19T02:33:15.081Z,102713.78
2023-05-19T02:34:18.121Z,102715.53
2023-05-19T02:35:21.022Z,102714.69
2023-05-19T02:36:22.827Z,102708.63
2023-05-19T02:37:28.747Z,102710.44
2023-05-19T02:38:30.425Z,102706.09
2023-05-19T02:39:35.203Z,102704.41
2023-05-19T02:40:37.373Z,102713.13
2023-05-19T02:41:39.467Z,102707.06
2023-05-19T02:42:41.283Z,102708.84
2023-05-19T02:43:42.932Z,102712.31
2023-05-19T02:44:44.912Z,102705.41
2023-05-19T02:45:47.125Z,102710.63
2023-05-19T02:46:49.009Z,102702.81
2023-05-19T02:47:50.775Z,102704.50
2023-05-19T02:48:52.648Z,102708.84
2023-05-19T02:49:54.850Z,102707.06
2023-05-19T02:50:56.916Z,102701.78
2023-05-19T02:51:58.814Z,102705.16
2023-05-19T02:53:00.507Z,102708.56
2023-05-19T02:54:02.145Z,102701.50
2023-05-19T02:55:04.331Z,102707.47
2023-05-19T02:56:06.216Z,102706.53
2023-05-19T02:57:07.896Z,102703.91
2023-05-19T02:58:09.736Z,102709.03
2023-05-19T02:59:11.561Z,102711.63
2023-05-19T03:00:13.749Z,102709.03
2023-05-19T03:01:16.527Z,102706.50
2023-05-19T03:02:18.609Z,102711.72
2023-05-19T03:03:20.587Z,102708.25
2023-05-19T03:04:22.425Z,102706.53
2023-05-19T03:05:24.156Z,102706.50
2023-05-19T03:06:25.932Z,102707.34
2023-05-19T03:07:27.821Z,102699.53
2023-05-19T03:08:29.560Z,102702.09
2023-05-19T03:09:31.418Z,102689.88
2023-05-19T03:10:33.455Z,102695.94
2023-05-19T03:11:35.714Z,102696.84
2023-05-19T03:12:37.973Z,102702.88
2023-05-19T03:13:39.728Z,102701.19
2023-05-19T03:14:41.463Z,102695.16
2023-05-19T03:15:43.288Z,102696.09
2023-05-19T03:16:45.252Z,102700.44
2023-05-19T03:17:47.246Z,102694.38
2023-05-19T03:18:49.066Z,102696.09
2023-05-19T03:19:51.284Z,102700.41
2023-05-19T03:20:54.032Z,102702.97
2023-05-19T03:21:56.500Z,102693.38
2023-05-19T03:22:58.523Z,102690.75
2023-05-19T03:24:01.208Z,102702.97
2023-05-19T03:25:03.484Z,102694.28
2023-05-19T03:26:05.388Z,102699.50
2023-05-19T03:27:07.101Z,102695.97
2023-05-19T03:28:08.926Z,102690.81
2023-05-19T03:29:10.593Z,102687.34
2023-05-19T03:30:13.440Z,102693.50
2023-05-19T03:31:28.508Z,102697.88
2023-05-19T03:32:30.263Z,102687.53
2023-05-19T03:33:32.040Z,102694.50
2023-05-19T03:34:33.947Z,102692.03
2023-05-19T03:35:35.891Z,102695.53
2023-05-19T03:36:39.462Z,102689.53
2023-05-19T03:37:45.417Z,102691.34
2023-05-19T03:38:47.126Z,102689.59
2023-05-19T03:39:49.152Z,102686.19
2023-05-19T03:40:51.055Z,102687.97
2023-05-19T03:41:52.746Z,102688.00
2023-05-19T03:42:54.604Z,102693.25
2023-05-19T03:43:56.461Z,102688.91
2023-05-19T03:44:58.120Z,102690.72
2023-05-19T03:45:59.957Z,102695.97
2023-05-19T03:47:20.152Z,102706.44
2023-05-19T03:48:38.686Z,102697.75
2023-05-19T03:50:03.601Z,102707.28
2023-05-19T03:51:18.136Z,102698.66
2023-05-19T03:52:21.691Z,102701.31
2023-05-19T03:53:35.068Z,102700.47
2023-05-19T03:54:39.563Z,102704.03
2023-05-19T03:55:41.296Z,102697.13
2023-05-19T03:56:43.519Z,102699.84
2023-05-19T03:57:45.206Z,102704.19
2023-05-19T03:58:48.449Z,102707.75
2023-05-19T03:59:50.155Z,102705.22
2023-05-19T04:00:51.754Z,102707.94
2023-05-19T04:01:53.777Z,102703.66
2023-05-19T04:02:55.623Z,102702.91
2023-05-19T04:03:57.475Z,102707.34
2023-05-19T04:04:59.290Z,102710.03
2023-05-19T04:06:00.962Z,102696.22
2023-05-19T04:07:02.715Z,102705.09
2023-05-19T04:08:04.448Z,102704.31
2023-05-19T04:09:12.834Z,102712.28
2023-05-19T04:10:14.616Z,102708.91
2023-05-19T04:11:16.425Z,102705.50
2023-05-19T04:12:18.280Z,102705.59
2023-05-19T04:13:21.499Z,102708.28
2023-05-19T04:14:23.579Z,102698.81
2023-05-19T04:15:26.032Z,102706.72
2023-05-19T04:16:27.881Z,102704.16
2023-05-19T04:17:29.727Z,102708.53
2023-05-19T04:18:31.560Z,102710.38
2023-05-19T04:19:33.672Z,102712.16
2023-05-19T04:20:36.762Z,102708.75
2023-05-19T04:21:38.861Z,102707.97
2023-05-19T04:22:40.478Z,102707.16
2023-05-19T04:23:42.080Z,102704.56
2023-05-19T04:24:43.891Z,102708.97
2023-05-19T04:25:48.629Z,102709.00
2023-05-19T04:26:50.847Z,102716.88
2023-05-19T04:27:53.027Z,102718.59
2023-05-19T04:28:56.872Z,102715.19
2023-05-19T04:29:59.536Z,102714.38
2023-05-19T04:31:01.644Z,102709.19
2023-05-19T04:32:07.919Z,102709.25
2023-05-19T04:33:10.384Z,102716.28
2023-05-19T04:34:12.418Z,102711.13
2023-05-19T04:35:15.406Z,102711.19
2023-05-19T04:36:21.325Z,102706.88
2023-05-19T04:37:25.867Z,102709.50
2023-05-19T04:38:29.929Z,102711.38
2023-05-19T04:39:32.134Z,102707.09
2023-05-19T04:40:34.738Z,102706.28
2023-05-19T04:41:36.530Z,102709.81
2023-05-19T04:42:45.812Z,102703.78
2023-05-19T04:43:50.065Z,102708.22
2023-05-19T04:44:53.621Z,102707.38
2023-05-19T04:45:58.483Z,102703.97
2023-05-19T04:47:00.807Z,102713.63
2023-05-19T04:48:02.755Z,102711.03
2023-05-19T04:49:04.765Z,102712.88
2023-05-19T04:50:07.482Z,102701.63
2023-05-19T04:51:09.565Z,102712.13
2023-05-19T04:52:11.668Z,102702.53
2023-05-19T04:53:15.724Z,102706.94
2023-05-19T04:54:18.057Z,102707.88
2023-05-19T04:55:20.690Z,102704.44
2023-05-19T04:56:24.400Z,102707.97
2023-05-19T04:57:26.235Z,102711.53
2023-05-19T04:58:27.857Z,102709.81
2023-05-19T04:59:29.890Z,102709.84
2023-05-19T05:00:32.183Z,102709.00
2023-05-19T05:01:40.908Z,102713.41
2023-05-19T05:02:45.542Z,102710.81
2023-05-19T05:03:48.344Z,102712.59
2023-05-19T05:04:50.761Z,102707.41
2023-05-19T05:05:52.541Z,102704.81
2023-05-19T05:06:54.491Z,102710.06
2023-05-19T05:07:57.580Z,102711.84
2023-05-19T05:09:03.951Z,102709.28
2023-05-19T05:10:07.263Z,102704.97
2023-05-19T05:11:09.465Z,102706.75
2023-05-19T05:12:12.530Z,102714.63
2023-05-19T05:13:15.609Z,102709.44
2023-05-19T05:14:18.512Z,102712.97
2023-05-19T05:15:24.942Z,102713.00
2023-05-19T05:16:27.309Z,102709.56
2023-05-19T05:17:30.327Z,102715.72
2023-05-19T05:18:33.622Z,102710.53
2023-05-19T05:19:36.001Z,102709.72
2023-05-19T05:20:38.977Z,102713.22
2023-05-19T05:21:41.765Z,102714.16
2023-05-19T05:22:44.383Z,102711.56
2023-05-19T05:23:46.976Z,102715.09
2023-05-19T05:24:49.496Z,102709.91
2023-05-19T05:25:51.707Z,102715.19
2023-05-19T05:26:53.988Z,102720.47
2023-05-19T05:27:55.886Z,102715.25
2023-05-19T05:28:58.502Z,102717.06
2023-05-19T05:30:00.609Z,102724.06
2023-05-19T05:31:03.734Z,102714.47
2023-05-19T05:32:06.017Z,102719.75
2023-05-19T05:33:08.854Z,102714.56
2023-05-19T05:34:13.641Z,102706.75
2023-05-19T05:35:15.585Z,102706.78
2023-05-19T05:36:17.841Z,102705.97
2023-05-19T05:37:19.706Z,102704.28
2023-05-19T05:38:21.534Z,102707.81
2023-05-19T05:39:23.899Z,102707.88
2023-05-19T05:40:25.624Z,102709.66
2023-05-19T05:41:34.976Z,102706.22
2023-05-19T05:42:40.488Z,102705.38
2023-05-19T05:43:42.377Z,102704.59
2023-05-19T05:44:44.035Z,102700.25
2023-05-19T05:45:45.837Z,102705.59
2023-05-19T05:46:48.197Z,102707.41
2023-05-19T05:47:50.935Z,102707.41
2023-05-19T05:48:52.891Z,102707.44
2023-05-19T05:49:54.924Z,102707.47
2023-05-19T05:50:57.408Z,102710.09
2023-05-19T05:52:06.252Z,102705.78
2023-05-19T05:53:19.245Z,102705.81
2023-05-19T05:54:23.294Z,102708.50
2023-05-19T05:55:26.540Z,102712.09
2023-05-19T05:56:28.774Z,102711.28
2023-05-19T05:57:30.764Z,102713.13
2023-05-19T05:58:35.799Z,102707.97
2023-05-19T05:59:40.696Z,102709.75
2023-05-19T06:00:43.787Z,102718.53
2023-05-19T06:01:46.121Z,102719.50
2023-05-19T06:02:51.309Z,102713.44
2023-05-19T06:03:54.123Z,102720.44
2023-05-19T06:04:58.320Z,102722.28
2023-05-19T06:06:00.498Z,102712.72
2023-05-19T06:07:04.827Z,102715.38
2023-05-19T06:08:10.071Z,102720.72
2023-05-19T06:09:12.442Z,102721.59
2023-05-19T06:10:14.267Z,102723.41
2023-05-19T06:11:16.355Z,102716.47
2023-05-19T06:12:18.042Z,102713.03
2023-05-19T06:13:24.083Z,102715.72
2023-05-19T06:14:25.965Z,102714.91
2023-05-19T06:15:46.231Z,102712.31
2023-05-19T06:16:57.384Z,102716.69
2023-05-19T06:17:59.260Z,102712.38
2023-05-19T06:19:01.378Z,102710.63
2023-05-19T06:20:05.701Z,102714.19
2023-05-19T06:21:10.119Z,102714.19
2023-05-19T06:22:12.230Z,102712.44
2023-05-19T06:23:14.462Z,102707.25
2023-05-19T06:24:16.121Z,102703.78
2023-05-19T06:25:17.976Z,102709.91
2023-05-19T06:26:19.842Z,102704.66
2023-05-19T06:27:21.690Z,102707.28
2023-05-19T06:28:23.561Z,102708.19
2023-05-19T06:29:26.899Z,102710.84
2023-05-19T06:30:30.745Z,102710.03
2023-05-19T06:31:52.028Z,102705.72
2023-05-19T06:32:54.498Z,102708.41
2023-05-19T06:33:56.356Z,102711.91
2023-05-19T06:34:58.592Z,102704.03
2023-05-19T06:36:00.610Z,102707.56
2023-05-19T06:37:03.858Z,102708.44
2023-05-19T06:38:06.677Z,102712.81
2023-05-19T06:39:08.652Z,102707.56
2023-05-19T06:40:11.645Z,102706.72
2023-05-19T06:41:14.734Z,102707.63
2023-05-19T06:42:16.845Z,102702.44
2023-05-19T06:43:38.809Z,102709.47
2023-05-19T06:44:40.654Z,102706.84
2023-05-19T06:45:46.183Z,102712.09
2023-05-19T06:46:47.929Z,102708.56
2023-05-19T06:47:49.864Z,102706.84
2023-05-19T06:48:52.023Z,102711.25
2023-05-19T06:49:57.521Z,102704.25
2023-05-19T06:51:02.564Z,102699.88
2023-05-19T06:52:06.138Z,102699.91
2023-05-19T06:53:07.804Z,102708.66
2023-05-19T06:54:15.946Z,102709.56
2023-05-19T06:55:17.659Z,102699.06
2023-05-19T06:56:19.727Z,102706.09
2023-05-19T06:57:21.758Z,102700.88
2023-05-19T06:58:24.636Z,102709.66
2023-05-19T06:59:26.390Z,102704.38
2023-05-19T07:00:30.350Z,102709.63
2023-05-19T07:01:32.591Z,102707.88
2023-05-19T07:02:34.865Z,102707.91
2023-05-19T07:03:40.092Z,102714.06
2023-05-19T07:04:44.012Z,102709.69
2023-05-19T07:05:48.931Z,102704.38
2023-05-19T07:06:50.675Z,102704.38
2023-05-19T07:07:52.753Z,102706.13
2023-05-19T07:08:59.008Z,102706.97
2023-05-19T07:10:01.322Z,102702.53
2023-05-19T07:11:04.614Z,102699.88
2023-05-19T07:12:06.431Z,102715.63
2023-05-19T07:13:08.575Z,102713.88
2023-05-19T07:14:11.165Z,102702.41
2023-05-19T07:15:12.915Z,102705.03
2023-05-19T07:16:14.849Z,102705.84
2023-05-19T07:17:16.809Z,102709.38
2023-05-19T07:18:20.127Z,102716.38
2023-05-19T07:19:22.753Z,102711.94
2023-05-19T07:20:25.094Z,102715.41
2023-05-19T07:21:26.857Z,102711.91
2023-05-19T07:22:30.098Z,102713.66
2023-05-19T07:23:31.720Z,102715.38
2023-05-19T07:24:33.669Z,102710.09
2023-05-19T07:25:35.278Z,102709.16
2023-05-19T07:26:37.824Z,102709.97
2023-05-19T07:27:39.735Z,102717.03
2023-05-19T07:28:42.798Z,102709.13
2023-05-19T07:29:44.726Z,102722.34
2023-05-19T07:30:46.368Z,102716.22
2023-05-19T07:31:48.193Z,102710.06
2023-05-19T07:32:49.872Z,102718.81
2023-05-19T07:33:54.275Z,102710.91
2023-05-19T07:34:56.302Z,102715.31
2023-05-19T07:35:57.865Z,102710.88
2023-05-19T07:37:00.291Z,102713.53
2023-05-19T07:38:02.449Z,102710.88
2023-05-19T07:39:04.583Z,102719.66
2023-05-19T07:40:09.982Z,102711.69
2023-05-19T07:41:11.623Z,102716.09
2023-05-19T07:42:13.895Z,102723.19
2023-05-19T07:43:15.574Z,102714.44
2023-05-19T07:44:17.367Z,102706.53
2023-05-19T07:45:19.025Z,102713.53
2023-05-19T07:46:21.948Z,102719.66
2023-05-19T07:47:24.525Z,102716.09
2023-05-19T07:48:26.257Z,102714.31
2023-05-19T07:49:27.847Z,102713.44
2023-05-19T07:50:29.912Z,102721.28
2023-05-19T07:51:31.789Z,102721.25
2023-05-19T07:52:35.768Z,102719.47
2023-05-19T07:53:37.640Z,102719.41
2023-05-19T07:54:39.644Z,102713.22
2023-05-19T07:55:41.280Z,102713.16
2023-05-19T07:56:42.938Z,102716.63
2023-05-19T07:57:44.859Z,102713.03
2023-05-19T07:58:46.505Z,102713.00
2023-05-19T07:59:48.206Z,102713.84
2023-05-19T08:00:50.066Z,102718.25
2023-05-19T08:01:52.109Z,102709.50
2023-05-19T08:02:54.146Z,102710.31
2023-05-19T08:03:56.740Z,102707.66
2023-05-19T08:04:58.802Z,102712.88
2023-05-19T08:06:00.482Z,102706.69
2023-05-19T08:07:02.220Z,102705.81
2023-05-19T08:08:04.332Z,102704.00
2023-05-19T08:09:06.137Z,102703.16
2023-05-19T08:10:08.060Z,102712.78
2023-05-19T08:11:09.864Z,102704.78
2023-05-19T08:12:11.478Z,102702.97
2023-05-19T08:13:13.475Z,102703.88
2023-05-19T08:14:15.252Z,102700.38
2023-05-19T08:15:16.853Z,102700.34
2023-05-19T08:16:18.941Z,102715.25
2023-05-19T08:17:20.767Z,102710.81
2023-05-19T08:18:22.526Z,102709.09
2023-05-19T08:19:24.227Z,102707.44
2023-05-19T08:20:25.897Z,102709.19
2023-05-19T08:21:27.593Z,102703.88
2023-05-19T08:22:29.383Z,102694.97
2023-05-19T08:23:30.997Z,102700.22
2023-05-19T08:24:35.457Z,102701.06
2023-05-19T08:25:37.767Z,102693.94
2023-05-19T08:26:39.742Z,102693.03
2023-05-19T08:27:41.547Z,102696.50
2023-05-19T08:28:44.273Z,102697.41
2023-05-19T08:29:45.992Z,102698.31
2023-05-19T08:30:47.553Z,102698.34
2023-05-19T08:31:49.550Z,102693.09
2023-05-19T08:32:51.345Z,102700.22
2023-05-19T08:33:53.108Z,102708.97
2023-05-19T08:34:54.781Z,102706.34
2023-05-19T08:35:58.584Z,102705.44
2023-05-19T08:37:00.276Z,102697.47
2023-05-19T08:38:01.899Z,102706.22
2023-05-19T08:39:04.066Z,102708.78
2023-05-19T08:40:06.382Z,102706.13
2023-05-19T08:41:08.477Z,102703.41
2023-05-19T08:42:10.224Z,102708.63
2023-05-19T08:43:12.869Z,102704.16
2023-05-19T08:44:16.592Z,102707.75
2023-05-19T08:45:20.694Z,102707.75
2023-05-19T08:46:27.471Z,102708.63
2023-05-19T08:47:29.668Z,102703.38
2023-05-19T08:48:32.852Z,102706.03
2023-05-19T08:49:53.479Z,102710.47
2023-05-19T08:51:09.030Z,102706.16
2023-05-19T08:52:35.896Z,102699.91
2023-05-19T08:53:51.161Z,102698.00
2023-05-19T08:55:04.878Z,102699.78
2023-05-19T08:56:12.372Z,102703.34
2023-05-19T08:57:14.435Z,102699.84
2023-05-19T08:58:20.358Z,102701.66
2023-05-19T08:59:22.859Z,102703.47
2023-05-19T09:00:26.530Z,102702.53
2023-05-19T09:01:30.778Z,102695.41
2023-05-19T09:02:36.825Z,102685.66
2023-05-19T09:03:39.910Z,102683.94
2023-05-19T09:04:46.229Z,102689.22
2023-05-19T09:05:48.861Z,102696.22
2023-05-19T09:06:51.521Z,102681.22
2023-05-19T09:07:53.506Z,102687.28
2023-05-19T09:08:55.385Z,102687.22
2023-05-19T09:09:57.051Z,102683.63
2023-05-19T09:10:59.605Z,102691.50
2023-05-19T09:12:01.442Z,102692.41
2023-05-19T09:13:03.117Z,102690.63
2023-05-19T09:14:05.883Z,102685.34
2023-05-19T09:15:10.297Z,102684.53
2023-05-19T09:16:12.461Z,102680.06
2023-05-19T09:17:15.787Z,102669.44
2023-05-19T09:18:17.805Z,102677.22
2023-05-19T09:19:21.380Z,102678.88
2023-05-19T09:20:23.214Z,102668.25
2023-05-19T09:21:31.642Z,102672.63
2023-05-19T09:22:37.112Z,102676.94
2023-05-19T09:23:39.026Z,102676.88
2023-05-19T09:24:41.380Z,102667.91
2023-05-19T09:25:53.888Z,102676.72
2023-05-19T09:27:00.425Z,102679.38
2023-05-19T09:28:02.506Z,102666.09
2023-05-19T09:29:17.745Z,102676.63
2023-05-19T09:30:20.487Z,102672.19
2023-05-19T09:31:22.613Z,102680.03
2023-05-19T09:32:26.754Z,102677.41
2023-05-19T09:33:30.046Z,102671.06
2023-05-19T09:34:32.323Z,102663.97
2023-05-19T09:35:35.315Z,102672.69
2023-05-19T09:36:39.983Z,102672.66
2023-05-19T09:37:42.090Z,102667.44
2023-05-19T09:38:45.584Z,102677.13
2023-05-19T09:39:51.959Z,102669.22
2023-05-19T09:40:57.691Z,102670.06
2023-05-19T09:41:59.550Z,102673.50
2023-05-19T09:43:05.426Z,102671.66
2023-05-19T09:44:07.919Z,102668.88
2023-05-19T09:45:09.985Z,102662.66
2023-05-19T09:46:13.797Z,102670.72
2023-05-19T09:47:16.882Z,102668.25
2023-05-19T09:48:21.612Z,102666.38
2023-05-19T09:49:31.267Z,102673.53
2023-05-19T09:50:34.083Z,102669.13
2023-05-19T09:51:41.797Z,102669.03
2023-05-19T09:52:44.664Z,102671.78
2023-05-19T09:53:46.610Z,102666.56
2023-05-19T09:54:49.293Z,102676.25
2023-05-19T09:55:55.446Z,102675.28
2023-05-19T09:56:59.088Z,102671.63
2023-05-19T09:58:04.042Z,102662.72
2023-05-19T09:59:07.463Z,102667.06
2023-05-19T10:00:19.949Z,102667.06
2023-05-19T10:01:22.449Z,102663.59
2023-05-19T10:02:26.195Z,102668.81
2023-05-19T10:03:28.695Z,102660.84
2023-05-19T10:04:31.602Z,102668.75
2023-05-19T10:05:34.481Z,102671.41
2023-05-19T10:06:37.039Z,102661.75
2023-05-19T10:07:40.823Z,102662.81
2023-05-19T10:08:44.286Z,102665.53
2023-05-19T10:09:47.421Z,102656.63
2023-05-19T10:10:49.674Z,102664.75
2023-05-19T10:11:55.768Z,102656.00
2023-05-19T10:13:00.343Z,102651.47
2023-05-19T10:14:02.260Z,102650.44
2023-05-19T10:15:05.723Z,102653.00
2023-05-19T10:16:10.042Z,102648.59
2023-05-19T10:17:13.026Z,102653.03
2023-05-19T10:18:18.228Z,102654.72
2023-05-19T10:19:27.864Z,102644.00
2023-05-19T10:20:31.568Z,102636.78
2023-05-19T10:21:33.616Z,102633.97
2023-05-19T10:22:35.493Z,102642.69
2023-05-19T10:23:38.138Z,102632.75
2023-05-19T10:24:40.436Z,102645.00
2023-05-19T10:25:42.889Z,102642.34
2023-05-19T10:26:48.024Z,102637.81
2023-05-19T10:28:14.724Z,102636.84
2023-05-19T10:29:21.219Z,102636.75
2023-05-19T10:30:35.849Z,102634.06
2023-05-19T10:31:42.751Z,102636.69
2023-05-19T10:32:46.738Z,102639.31
2023-05-19T10:34:02.869Z,102632.47
2023-05-19T10:35:08.522Z,102635.25
2023-05-19T10:36:24.989Z,102634.44
2023-05-19T10:37:41.909Z,102631.94
2023-05-19T10:39:01.864Z,102626.66
2023-05-19T10:40:21.912Z,102623.00
2023-05-19T10:41:46.416Z,102621.16
2023-05-19T10:43:14.198Z,102622.84
2023-05-19T10:44:23.798Z,102620.91
2023-05-19T10:45:29.390Z,102619.88
2023-05-19T10:46:31.715Z,102626.78
2023-05-19T10:47:35.004Z,102619.59
2023-05-19T10:48:37.490Z,102624.78
2023-05-19T10:49:39.972Z,102617.63
2023-05-19T10:50:44.838Z,102622.88
2023-05-19T10:51:46.818Z,102628.91
2023-05-19T10:52:57.972Z,102628.88
2023-05-19T10:54:06.221Z,102626.47
2023-05-19T10:55:10.073Z,102623.81
2023-05-19T10:56:12.557Z,102609.56
2023-05-19T10:57:16.201Z,102619.09
2023-05-19T10:58:36.387Z,102619.09
2023-05-19T10:59:39.524Z,102612.88
2023-05-19T11:00:44.545Z,102621.66
2023-05-19T11:01:47.035Z,102615.28
2023-05-19T11:02:55.925Z,102621.22
2023-05-19T11:03:57.699Z,102608.63
2023-05-19T11:05:18.545Z,102612.00
2023-05-19T11:06:27.479Z,102608.44
2023-05-19T11:07:29.830Z,102611.84
2023-05-19T11:08:33.446Z,102614.41
2023-05-19T11:09:41.057Z,102605.59
2023-05-19T11:10:46.429Z,102602.13
2023-05-19T11:11:54.910Z,102612.75
2023-05-19T11:13:00.522Z,102611.94
2023-05-19T11:14:02.128Z,102610.06
2023-05-19T11:15:04.333Z,102606.28
2023-05-19T11:16:09.961Z,102602.53
2023-05-19T11:17:15.822Z,102608.56
2023-05-19T11:18:20.305Z,102609.34
2023-05-19T11:19:37.406Z,102601.28
2023-05-19T11:20:39.701Z,102604.97
2023-05-19T11:21:52.708Z,102604.19
2023-05-19T11:23:06.980Z,102611.59
2023-05-19T11:24:09.793Z,102604.56
2023-05-19T11:25:11.431Z,102603.69
2023-05-19T11:26:13.756Z,102598.38
2023-05-19T11:27:28.552Z,102587.66
2023-05-19T11:28:30.889Z,102593.81
2023-05-19T11:29:34.240Z,102592.81
2023-05-19T11:30:36.876Z,102607.22
2023-05-19T11:31:39.785Z,102594.19
2023-05-19T11:32:42.884Z,102593.38
2023-05-19T11:33:45.277Z,102590.66
2023-05-19T11:34:48.574Z,102591.38
2023-05-19T11:35:51.171Z,102593.00
2023-05-19T11:36:53.030Z,102584.00
2023-05-19T11:37:54.876Z,102581.13
2023-05-19T11:38:57.613Z,102578.28
2023-05-19T11:40:02.546Z,102578.16
2023-05-19T11:41:04.546Z,102575.66
2023-05-19T11:42:10.596Z,102587.94
2023-05-19T11:43:12.599Z,102579.03
2023-05-19T11:44:14.268Z,102575.59
2023-05-19T11:45:16.196Z,102588.13
2023-05-19T11:46:18.256Z,102582.78
2023-05-19T11:47:21.082Z,102576.38
2023-05-19T11:48:23.030Z,102577.06
2023-05-19T11:49:24.929Z,102570.63
2023-05-19T11:50:27.597Z,102576.78
2023-05-19T11:51:29.493Z,102566.91
2023-05-19T11:52:31.194Z,102577.59
2023-05-19T11:53:36.167Z,102577.59
2023-05-19T11:54:39.663Z,102578.44
2023-05-19T11:55:49.384Z,102578.34
2023-05-19T11:56:51.534Z,102570.31
2023-05-19T11:58:04.066Z,102569.16
2023-05-19T11:59:06.854Z,102574.31
2023-05-19T12:00:09.316Z,102579.63
2023-05-19T12:01:11.130Z,102576.22
2023-05-19T12:02:16.100Z,102581.44
2023-05-19T12:03:21.794Z,102582.25
2023-05-19T12:04:23.814Z,102583.94
2023-05-19T12:05:26.588Z,102575.03
2023-05-19T12:06:29.865Z,102578.44
2023-05-19T12:07:31.872Z,102569.53
2023-05-19T12:08:34.839Z,102571.16
2023-05-19T12:09:36.991Z,102569.16
2023-05-19T12:10:39.812Z,102580.63
2023-05-19T12:11:41.519Z,102577.31
2023-05-19T12:12:45.176Z,102573.66
2023-05-19T12:13:47.847Z,102575.50
2023-05-19T12:14:54.054Z,102582.53